sensor_id;sensor_type;location;lat;lon;timestamp;pressure;altitude;pressure_sealevel;temperature;humidity
56658;BME280;42530;52.240;19.354;2022-11-11T00:00:27;53140.25;;;-144.69;52.13
56658;BME280;42530;52.240;19.354;2022-11-11T00:02:57;53169.38;;;-144.69;52.59
56658;BME280;42530;52.240;19.354;2022-11-11T00:05:23;53156.91;;;-144.69;52.88
56658;BME280;42530;52.240;19.354;2022-11-11T00:07:53;53169.38;;;-144.69;52.34
56658;BME280;42530;52.240;19.354;2022-11-11T00:10:27;53165.22;;;-144.69;52.69
56658;BME280;42530;52.240;19.354;2022-11-11T00:12:52;53142.34;;;-144.69;53.24
56658;BME280;42530;52.240;19.354;2022-11-11T00:15:18;53152.75;;;-144.69;52.66
56658;BME280;42530;52.240;19.354;2022-11-11T00:17:44;53136.09;;;-144.69;52.33
56658;BME280;42530;52.240;19.354;2022-11-11T00:20:28;53152.75;;;-144.69;52.43
56658;BME280;42530;52.240;19.354;2022-11-11T00:23:22;53123.63;;;-144.69;52.58
56658;BME280;42530;52.240;19.354;2022-11-11T00:26:08;53140.25;;;-144.69;52.07
56658;BME280;42530;52.240;19.354;2022-11-11T00:28:33;53150.66;;;-144.69;51.79
56658;BME280;42530;52.240;19.354;2022-11-11T00:31:12;53144.41;;;-144.69;52.22
56658;BME280;42530;52.240;19.354;2022-11-11T00:33:38;53144.41;;;-144.69;52.24
56658;BME280;42530;52.240;19.354;2022-11-11T00:36:05;53136.09;;;-144.69;52.86
56658;BME280;42530;52.240;19.354;2022-11-11T00:38:30;53156.91;;;-144.69;52.45
56658;BME280;42530;52.240;19.354;2022-11-11T00:41:14;53131.94;;;-144.69;52.05
56658;BME280;42530;52.240;19.354;2022-11-11T00:43:40;53148.56;;;-144.69;52.18
56658;BME280;42530;52.240;19.354;2022-11-11T00:46:06;53144.41;;;-144.69;52.32
56658;BME280;42530;52.240;19.354;2022-11-11T00:48:50;53167.31;;;-144.69;52.41
56658;BME280;42530;52.240;19.354;2022-11-11T00:51:34;53186.03;;;-144.69;52.66
56658;BME280;42530;52.240;19.354;2022-11-11T00:53:59;53129.84;;;-144.69;52.08
56658;BME280;42530;52.240;19.354;2022-11-11T00:56:25;53127.78;;;-144.69;52.00
56658;BME280;42530;52.240;19.354;2022-11-11T00:58:51;53154.81;;;-144.69;51.62
56658;BME280;42530;52.240;19.354;2022-11-11T01:01:17;53144.41;;;-144.69;52.71
56658;BME280;42530;52.240;19.354;2022-11-11T01:03:43;53171.47;;;-144.69;52.54
56658;BME280;42530;52.240;19.354;2022-11-11T01:06:10;53136.09;;;-144.69;52.88
56658;BME280;42530;52.240;19.354;2022-11-11T01:08:36;53140.25;;;-144.69;53.29
56658;BME280;42530;52.240;19.354;2022-11-11T01:11:01;53134.00;;;-144.69;53.13
56658;BME280;42530;52.240;19.354;2022-11-11T01:13:30;53165.22;;;-144.69;52.88
56658;BME280;42530;52.240;19.354;2022-11-11T01:16:09;53115.28;;;-144.69;53.87
56658;BME280;42530;52.240;19.354;2022-11-11T01:18:35;53119.44;;;-144.69;53.54
56658;BME280;42530;52.240;19.354;2022-11-11T01:21:06;53163.13;;;-144.69;53.21
56658;BME280;42530;52.240;19.354;2022-11-11T01:23:34;53177.72;;;-144.69;52.86
56658;BME280;42530;52.240;19.354;2022-11-11T01:28:30;53161.06;;;-144.69;52.98
56658;BME280;42530;52.240;19.354;2022-11-11T01:31:01;53165.22;;;-144.69;52.88
56658;BME280;42530;52.240;19.354;2022-11-11T01:33:27;53131.94;;;-144.69;52.97
56658;BME280;42530;52.240;19.354;2022-11-11T01:35:52;53138.19;;;-144.69;53.13
56658;BME280;42530;52.240;19.354;2022-11-11T01:38:18;53146.50;;;-144.69;52.75
56658;BME280;42530;52.240;19.354;2022-11-11T01:40:45;53119.44;;;-144.69;52.34
56658;BME280;42530;52.240;19.354;2022-11-11T01:48:28;53131.94;;;-144.69;52.50
56658;BME280;42530;52.240;19.354;2022-11-11T01:54:03;53175.63;;;-144.69;52.97
56658;BME280;42530;52.240;19.354;2022-11-11T01:56:31;53173.53;;;-144.69;53.04
56658;BME280;42530;52.240;19.354;2022-11-11T01:59:02;53138.19;;;-144.69;53.22
56658;BME280;42530;52.240;19.354;2022-11-11T02:01:29;53136.09;;;-144.69;53.61
56658;BME280;42530;52.240;19.354;2022-11-11T02:03:55;53183.94;;;-144.69;52.95
56658;BME280;42530;52.240;19.354;2022-11-11T02:06:41;53154.81;;;-144.69;53.09
56658;BME280;42530;52.240;19.354;2022-11-11T02:09:07;53165.22;;;-144.69;53.42
56658;BME280;42530;52.240;19.354;2022-11-11T02:11:34;53152.75;;;-144.69;52.75
56658;BME280;42530;52.240;19.354;2022-11-11T02:14:19;53144.41;;;-144.69;52.52
56658;BME280;42530;52.240;19.354;2022-11-11T02:17:01;53146.50;;;-144.69;52.30
56658;BME280;42530;52.240;19.354;2022-11-11T02:19:58;53138.19;;;-144.69;52.95
56658;BME280;42530;52.240;19.354;2022-11-11T02:22:49;53125.69;;;-144.69;52.34
56658;BME280;42530;52.240;19.354;2022-11-11T02:25:18;53177.72;;;-144.69;52.96
56658;BME280;42530;52.240;19.354;2022-11-11T02:27:47;53129.84;;;-144.69;52.87
56658;BME280;42530;52.240;19.354;2022-11-11T02:30:16;53115.28;;;-144.69;53.00
56658;BME280;42530;52.240;19.354;2022-11-11T02:32:43;53140.25;;;-144.69;52.84
56658;BME280;42530;52.240;19.354;2022-11-11T02:35:15;53161.06;;;-144.69;53.25
56658;BME280;42530;52.240;19.354;2022-11-11T02:37:43;53144.41;;;-144.69;53.72
56658;BME280;42530;52.240;19.354;2022-11-11T02:40:12;53121.53;;;-144.69;53.29
56658;BME280;42530;52.240;19.354;2022-11-11T02:42:38;53165.22;;;-144.69;53.75
56658;BME280;42530;52.240;19.354;2022-11-11T02:45:04;53169.38;;;-144.69;53.18
56658;BME280;42530;52.240;19.354;2022-11-11T02:47:30;53150.66;;;-144.69;53.11
56658;BME280;42530;52.240;19.354;2022-11-11T02:49:55;53144.41;;;-144.69;53.13
56658;BME280;42530;52.240;19.354;2022-11-11T02:52:21;53161.06;;;-144.69;53.52
56658;BME280;42530;52.240;19.354;2022-11-11T02:54:46;53177.72;;;-144.69;53.56
56658;BME280;42530;52.240;19.354;2022-11-11T02:57:13;53190.19;;;-144.69;53.07
56658;BME280;42530;52.240;19.354;2022-11-11T02:59:39;53161.06;;;-144.69;53.21
56658;BME280;42530;52.240;19.354;2022-11-11T03:02:06;53144.41;;;-144.69;53.38
56658;BME280;42530;52.240;19.354;2022-11-11T03:04:33;53156.91;;;-144.69;53.56
56658;BME280;42530;52.240;19.354;2022-11-11T03:06:59;53090.31;;;-144.69;53.90
56658;BME280;42530;52.240;19.354;2022-11-11T03:09:24;53171.47;;;-144.69;52.89
56658;BME280;42530;52.240;19.354;2022-11-11T03:11:50;53156.91;;;-144.69;54.03
56658;BME280;42530;52.240;19.354;2022-11-11T03:14:16;53169.38;;;-144.69;54.03
56658;BME280;42530;52.240;19.354;2022-11-11T03:16:41;53148.56;;;-144.69;53.81
56658;BME280;42530;52.240;19.354;2022-11-11T03:19:25;53146.50;;;-144.69;53.77
56658;BME280;42530;52.240;19.354;2022-11-11T03:21:50;53136.09;;;-144.69;53.10
56658;BME280;42530;52.240;19.354;2022-11-11T03:24:16;53154.81;;;-144.69;53.70
56658;BME280;42530;52.240;19.354;2022-11-11T03:26:41;53152.75;;;-144.69;53.74
56658;BME280;42530;52.240;19.354;2022-11-11T03:29:07;53177.72;;;-144.69;53.47
56658;BME280;42530;52.240;19.354;2022-11-11T03:31:32;53123.63;;;-144.69;53.23
56658;BME280;42530;52.240;19.354;2022-11-11T03:33:58;53144.41;;;-144.69;53.11
56658;BME280;42530;52.240;19.354;2022-11-11T03:36:43;53156.91;;;-144.69;53.12
56658;BME280;42530;52.240;19.354;2022-11-11T03:39:28;53109.06;;;-144.69;52.81
56658;BME280;42530;52.240;19.354;2022-11-11T03:41:55;53167.31;;;-144.69;53.40
56658;BME280;42530;52.240;19.354;2022-11-11T03:44:21;53173.53;;;-144.69;53.04
56658;BME280;42530;52.240;19.354;2022-11-11T03:46:46;53144.41;;;-144.69;52.88
56658;BME280;42530;52.240;19.354;2022-11-11T03:49:12;53148.56;;;-144.69;53.22
56658;BME280;42530;52.240;19.354;2022-11-11T03:51:37;53154.81;;;-144.69;52.94
56658;BME280;42530;52.240;19.354;2022-11-11T03:54:03;53146.50;;;-144.69;53.29
56658;BME280;42530;52.240;19.354;2022-11-11T03:56:28;53175.63;;;-144.69;52.86
56658;BME280;42530;52.240;19.354;2022-11-11T03:58:54;53142.34;;;-144.69;52.73
56658;BME280;42530;52.240;19.354;2022-11-11T04:01:20;53140.25;;;-144.69;53.02
56658;BME280;42530;52.240;19.354;2022-11-11T04:04:03;53121.53;;;-144.69;52.39
56658;BME280;42530;52.240;19.354;2022-11-11T04:06:47;53165.22;;;-144.69;53.00
56658;BME280;42530;52.240;19.354;2022-11-11T04:09:31;53158.97;;;-144.69;52.79
56658;BME280;42530;52.240;19.354;2022-11-11T04:12:15;53138.19;;;-144.69;52.23
56658;BME280;42530;52.240;19.354;2022-11-11T04:14:41;53131.94;;;-144.69;51.93
56658;BME280;42530;52.240;19.354;2022-11-11T04:17:25;53140.25;;;-144.69;51.46
56658;BME280;42530;52.240;19.354;2022-11-11T04:19:50;53150.66;;;-144.69;51.86
56658;BME280;42530;52.240;19.354;2022-11-11T04:22:43;53165.22;;;-144.69;51.96
56658;BME280;42530;52.240;19.354;2022-11-11T04:25:09;53138.19;;;-144.69;52.17
56658;BME280;42530;52.240;19.354;2022-11-11T04:27:56;53121.53;;;-144.69;51.64
56658;BME280;42530;52.240;19.354;2022-11-11T04:30:40;53131.94;;;-144.69;51.45
56658;BME280;42530;52.240;19.354;2022-11-11T04:33:06;53156.91;;;-144.69;51.66
56658;BME280;42530;52.240;19.354;2022-11-11T04:35:31;53179.78;;;-144.69;52.50
56658;BME280;42530;52.240;19.354;2022-11-11T04:37:57;53156.91;;;-144.69;51.94
56658;BME280;42530;52.240;19.354;2022-11-11T04:40:43;53129.84;;;-144.69;52.15
56658;BME280;42530;52.240;19.354;2022-11-11T04:43:27;53123.63;;;-144.69;51.77
56658;BME280;42530;52.240;19.354;2022-11-11T04:45:57;53165.22;;;-144.69;51.58
56658;BME280;42530;52.240;19.354;2022-11-11T04:48:23;53165.22;;;-144.69;52.08
56658;BME280;42530;52.240;19.354;2022-11-11T04:50:49;53138.19;;;-144.69;51.71
56658;BME280;42530;52.240;19.354;2022-11-11T04:53:14;53136.09;;;-144.69;51.89
56658;BME280;42530;52.240;19.354;2022-11-11T04:55:41;53150.66;;;-144.69;51.94
56658;BME280;42530;52.240;19.354;2022-11-11T04:58:31;53156.91;;;-144.69;52.28
56658;BME280;42530;52.240;19.354;2022-11-11T05:00:57;53136.09;;;-144.69;51.80
56658;BME280;42530;52.240;19.354;2022-11-11T05:03:23;53131.94;;;-144.69;51.93
56658;BME280;42530;52.240;19.354;2022-11-11T05:08:36;53146.50;;;-144.69;52.61
56658;BME280;42530;52.240;19.354;2022-11-11T05:11:24;53148.56;;;-144.69;52.04
56658;BME280;42530;52.240;19.354;2022-11-11T05:13:51;53142.34;;;-144.69;52.56
56658;BME280;42530;52.240;19.354;2022-11-11T05:16:41;53161.06;;;-144.69;51.97
56658;BME280;42530;52.240;19.354;2022-11-11T05:19:26;53154.81;;;-144.69;52.22
56658;BME280;42530;52.240;19.354;2022-11-11T05:22:18;53173.53;;;-144.69;52.29
56658;BME280;42530;52.240;19.354;2022-11-11T05:24:46;53111.13;;;-144.69;52.27
56658;BME280;42530;52.240;19.354;2022-11-11T05:27:30;53127.78;;;-144.69;51.91
56658;BME280;42530;52.240;19.354;2022-11-11T05:29:55;53161.06;;;-144.69;52.38
56658;BME280;42530;52.240;19.354;2022-11-11T05:32:22;53134.00;;;-144.69;51.91
56658;BME280;42530;52.240;19.354;2022-11-11T05:34:48;53127.78;;;-144.69;52.11
56658;BME280;42530;52.240;19.354;2022-11-11T05:37:14;53138.19;;;-144.69;52.21
56658;BME280;42530;52.240;19.354;2022-11-11T05:39:40;53175.63;;;-144.69;51.88
56658;BME280;42530;52.240;19.354;2022-11-11T05:42:05;53123.63;;;-144.69;52.30
56658;BME280;42530;52.240;19.354;2022-11-11T05:44:31;53169.38;;;-144.69;52.25
56658;BME280;42530;52.240;19.354;2022-11-11T05:46:57;53140.25;;;-144.69;52.27
56658;BME280;42530;52.240;19.354;2022-11-11T05:49:22;53142.34;;;-144.69;52.18
56658;BME280;42530;52.240;19.354;2022-11-11T05:51:49;53131.94;;;-144.69;52.13
56658;BME280;42530;52.240;19.354;2022-11-11T05:54:16;53196.44;;;-144.69;52.05
56658;BME280;42530;52.240;19.354;2022-11-11T05:56:41;53140.25;;;-144.69;52.47
56658;BME280;42530;52.240;19.354;2022-11-11T05:59:07;53171.47;;;-144.69;52.00
56658;BME280;42530;52.240;19.354;2022-11-11T06:01:33;53148.56;;;-144.69;51.98
56658;BME280;42530;52.240;19.354;2022-11-11T06:03:59;53150.66;;;-144.69;51.53
56658;BME280;42530;52.240;19.354;2022-11-11T06:06:25;53167.31;;;-144.69;51.71
56658;BME280;42530;52.240;19.354;2022-11-11T06:08:50;53140.25;;;-144.69;51.82
56658;BME280;42530;52.240;19.354;2022-11-11T06:11:16;53181.88;;;-144.69;52.07
56658;BME280;42530;52.240;19.354;2022-11-11T06:13:41;53152.75;;;-144.69;51.29
56658;BME280;42530;52.240;19.354;2022-11-11T06:16:07;53152.75;;;-144.69;51.67
56658;BME280;42530;52.240;19.354;2022-11-11T06:18:32;53156.91;;;-144.69;51.93
56658;BME280;42530;52.240;19.354;2022-11-11T06:20:58;53125.69;;;-144.69;51.61
56658;BME280;42530;52.240;19.354;2022-11-11T06:23:25;53173.53;;;-144.69;51.40
56658;BME280;42530;52.240;19.354;2022-11-11T06:25:51;53156.91;;;-144.69;51.34
56658;BME280;42530;52.240;19.354;2022-11-11T06:28:37;53148.56;;;-144.69;51.59
56658;BME280;42530;52.240;19.354;2022-11-11T06:31:03;53140.25;;;-144.69;51.63
56658;BME280;42530;52.240;19.354;2022-11-11T06:33:34;53173.53;;;-144.69;51.77
56658;BME280;42530;52.240;19.354;2022-11-11T06:36:01;53140.25;;;-144.69;51.47
56658;BME280;42530;52.240;19.354;2022-11-11T06:38:27;53125.69;;;-144.69;51.27
56658;BME280;42530;52.240;19.354;2022-11-11T06:40:53;53177.72;;;-144.69;52.12
56658;BME280;42530;52.240;19.354;2022-11-11T06:43:19;53186.03;;;-144.69;51.69
56658;BME280;42530;52.240;19.354;2022-11-11T06:45:44;53142.34;;;-144.69;51.15
56658;BME280;42530;52.240;19.354;2022-11-11T06:48:10;53158.97;;;-144.69;52.09
56658;BME280;42530;52.240;19.354;2022-11-11T06:50:36;53156.91;;;-144.69;51.34
56658;BME280;42530;52.240;19.354;2022-11-11T06:53:10;53142.34;;;-144.69;51.47
56658;BME280;42530;52.240;19.354;2022-11-11T06:55:35;53167.31;;;-144.69;51.23
56658;BME280;42530;52.240;19.354;2022-11-11T06:58:14;53138.19;;;-144.69;50.56
56658;BME280;42530;52.240;19.354;2022-11-11T07:00:41;53175.63;;;-144.69;51.38
56658;BME280;42530;52.240;19.354;2022-11-11T07:03:09;53204.75;;;-144.69;51.19
56658;BME280;42530;52.240;19.354;2022-11-11T07:05:35;53173.53;;;-144.69;51.33
56658;BME280;42530;52.240;19.354;2022-11-11T07:08:02;53165.22;;;-144.69;51.15
56658;BME280;42530;52.240;19.354;2022-11-11T07:10:29;53158.97;;;-144.69;50.98
56658;BME280;42530;52.240;19.354;2022-11-11T07:12:54;53140.25;;;-144.69;49.98
56658;BME280;42530;52.240;19.354;2022-11-11T07:15:20;53165.22;;;-144.69;50.48
56658;BME280;42530;52.240;19.354;2022-11-11T07:17:46;53163.13;;;-144.69;50.43
56658;BME280;42530;52.240;19.354;2022-11-11T07:20:11;53206.84;;;-144.69;50.23
56658;BME280;42530;52.240;19.354;2022-11-11T07:22:37;53154.81;;;-144.69;49.93
56658;BME280;42530;52.240;19.354;2022-11-11T07:25:02;53202.66;;;-144.69;48.95
56658;BME280;42530;52.240;19.354;2022-11-11T07:27:28;53192.28;;;-144.69;48.86
56658;BME280;42530;52.240;19.354;2022-11-11T07:29:54;53177.72;;;-144.69;48.25
56658;BME280;42530;52.240;19.354;2022-11-11T07:32:19;53156.91;;;-144.69;48.45
56658;BME280;42530;52.240;19.354;2022-11-11T07:34:45;53169.38;;;-144.69;48.31
56658;BME280;42530;52.240;19.354;2022-11-11T07:37:10;53223.47;;;-144.69;48.15
56658;BME280;42530;52.240;19.354;2022-11-11T07:39:36;53177.72;;;-144.69;47.47
56658;BME280;42530;52.240;19.354;2022-11-11T07:42:01;53152.75;;;-144.69;46.79
56658;BME280;42530;52.240;19.354;2022-11-11T07:44:27;53173.53;;;-144.69;46.12
56658;BME280;42530;52.240;19.354;2022-11-11T07:46:53;53192.28;;;-144.69;46.88
56658;BME280;42530;52.240;19.354;2022-11-11T07:49:18;53169.38;;;-144.69;46.48
56658;BME280;42530;52.240;19.354;2022-11-11T07:51:44;53144.41;;;-144.69;46.52
56658;BME280;42530;52.240;19.354;2022-11-11T07:54:09;53150.66;;;-144.69;46.72
56658;BME280;42530;52.240;19.354;2022-11-11T07:56:35;53136.09;;;-144.69;46.97
56658;BME280;42530;52.240;19.354;2022-11-11T07:59:00;53165.22;;;-144.69;46.73
56658;BME280;42530;52.240;19.354;2022-11-11T08:01:26;53131.94;;;-144.69;46.85
56658;BME280;42530;52.240;19.354;2022-11-11T08:03:52;53198.50;;;-144.69;47.54
56658;BME280;42530;52.240;19.354;2022-11-11T08:06:19;53171.47;;;-144.69;47.88
56658;BME280;42530;52.240;19.354;2022-11-11T08:08:45;53140.25;;;-144.69;48.41
56658;BME280;42530;52.240;19.354;2022-11-11T08:11:11;53186.03;;;-144.69;47.83
56658;BME280;42530;52.240;19.354;2022-11-11T08:13:36;53175.63;;;-144.69;48.20
56658;BME280;42530;52.240;19.354;2022-11-11T08:16:09;53186.03;;;-144.69;48.18
56658;BME280;42530;52.240;19.354;2022-11-11T08:18:35;53138.19;;;-144.69;47.76
56658;BME280;42530;52.240;19.354;2022-11-11T08:21:02;53161.06;;;-144.69;47.76
56658;BME280;42530;52.240;19.354;2022-11-11T08:23:28;53121.53;;;-144.69;47.42
56658;BME280;42530;52.240;19.354;2022-11-11T08:26:02;53161.06;;;-144.69;47.77
56658;BME280;42530;52.240;19.354;2022-11-11T08:28:29;53177.72;;;-144.69;47.67
56658;BME280;42530;52.240;19.354;2022-11-11T08:30:57;53173.53;;;-144.69;48.26
56658;BME280;42530;52.240;19.354;2022-11-11T08:33:23;53144.41;;;-144.69;47.74
56658;BME280;42530;52.240;19.354;2022-11-11T08:35:49;53188.09;;;-144.69;47.54
56658;BME280;42530;52.240;19.354;2022-11-11T08:38:15;53142.34;;;-144.69;46.60
56658;BME280;42530;52.240;19.354;2022-11-11T08:40:41;53186.03;;;-144.69;47.74
56658;BME280;42530;52.240;19.354;2022-11-11T08:43:07;53156.91;;;-144.69;47.95
56658;BME280;42530;52.240;19.354;2022-11-11T08:45:32;53146.50;;;-144.69;47.93
56658;BME280;42530;52.240;19.354;2022-11-11T08:47:58;53148.56;;;-144.69;46.94
56658;BME280;42530;52.240;19.354;2022-11-11T08:50:24;53219.31;;;-144.69;47.09
56658;BME280;42530;52.240;19.354;2022-11-11T08:52:50;53156.91;;;-144.69;46.85
56658;BME280;42530;52.240;19.354;2022-11-11T08:55:16;53171.47;;;-144.69;46.91
56658;BME280;42530;52.240;19.354;2022-11-11T08:57:42;53171.47;;;-144.69;47.34
56658;BME280;42530;52.240;19.354;2022-11-11T09:00:09;53181.88;;;-144.69;47.76
56658;BME280;42530;52.240;19.354;2022-11-11T09:02:35;53161.06;;;-144.69;47.53
56658;BME280;42530;52.240;19.354;2022-11-11T09:05:01;53167.31;;;-144.69;47.12
56658;BME280;42530;52.240;19.354;2022-11-11T09:07:26;53156.91;;;-144.69;46.59
56658;BME280;42530;52.240;19.354;2022-11-11T09:09:52;53169.38;;;-144.69;47.08
56658;BME280;42530;52.240;19.354;2022-11-11T09:12:18;53169.38;;;-144.69;47.15
56658;BME280;42530;52.240;19.354;2022-11-11T09:14:44;53158.97;;;-144.69;48.12
56658;BME280;42530;52.240;19.354;2022-11-11T09:17:09;53181.88;;;-144.69;48.29
56658;BME280;42530;52.240;19.354;2022-11-11T09:19:35;53131.94;;;-144.69;48.39
56658;BME280;42530;52.240;19.354;2022-11-11T09:22:01;53113.22;;;-144.69;48.95
56658;BME280;42530;52.240;19.354;2022-11-11T09:24:26;53200.59;;;-144.69;48.25
56658;BME280;42530;52.240;19.354;2022-11-11T09:26:52;53156.91;;;-144.69;47.88
56658;BME280;42530;52.240;19.354;2022-11-11T09:29:18;53123.63;;;-144.69;47.78
56658;BME280;42530;52.240;19.354;2022-11-11T09:31:44;53148.56;;;-144.69;48.07
56658;BME280;42530;52.240;19.354;2022-11-11T09:34:10;53175.63;;;-144.69;47.96
56658;BME280;42530;52.240;19.354;2022-11-11T09:36:36;53169.38;;;-144.69;48.58
56658;BME280;42530;52.240;19.354;2022-11-11T09:39:01;53144.41;;;-144.69;48.15
56658;BME280;42530;52.240;19.354;2022-11-11T09:44:04;53146.50;;;-144.69;48.29
56658;BME280;42530;52.240;19.354;2022-11-11T09:46:57;53165.22;;;-144.69;48.93
56658;BME280;42530;52.240;19.354;2022-11-11T09:52:22;53173.53;;;-144.69;47.54
56658;BME280;42530;52.240;19.354;2022-11-11T09:54:59;53169.38;;;-144.69;47.89
56658;BME280;42530;52.240;19.354;2022-11-11T10:00:06;53131.94;;;-144.69;47.86
56658;BME280;42530;52.240;19.354;2022-11-11T10:02:44;53186.03;;;-144.69;47.74
56658;BME280;42530;52.240;19.354;2022-11-11T10:07:50;53138.19;;;-144.69;48.34
56658;BME280;42530;52.240;19.354;2022-11-11T10:10:42;53192.28;;;-144.69;47.26
56658;BME280;42530;52.240;19.354;2022-11-11T10:13:33;53152.75;;;-144.69;47.86
56658;BME280;42530;52.240;19.354;2022-11-11T10:21:52;53154.81;;;-144.69;47.47
56658;BME280;42530;52.240;19.354;2022-11-11T10:26:52;53158.97;;;-144.69;47.80
56658;BME280;42530;52.240;19.354;2022-11-11T10:29:20;53140.25;;;-144.69;47.25
56658;BME280;42530;52.240;19.354;2022-11-11T10:31:57;53173.53;;;-144.69;47.54
56658;BME280;42530;52.240;19.354;2022-11-11T10:34:28;53156.91;;;-144.69;47.43
56658;BME280;42530;52.240;19.354;2022-11-11T10:36:57;53165.22;;;-144.69;46.91
56658;BME280;42530;52.240;19.354;2022-11-11T10:42:15;53144.41;;;-144.69;46.65
56658;BME280;42530;52.240;19.354;2022-11-11T10:44:42;53181.88;;;-144.69;46.90
56658;BME280;42530;52.240;19.354;2022-11-11T10:52:21;53171.47;;;-144.69;46.71
56658;BME280;42530;52.240;19.354;2022-11-11T10:54:59;53173.53;;;-144.69;47.27
56658;BME280;42530;52.240;19.354;2022-11-11T10:57:54;53173.53;;;-144.69;47.05
56658;BME280;42530;52.240;19.354;2022-11-11T11:00:18;53194.34;;;-144.69;47.13
56658;BME280;42530;52.240;19.354;2022-11-11T11:02:52;53186.03;;;-144.69;46.42
56658;BME280;42530;52.240;19.354;2022-11-11T11:05:24;53179.78;;;-144.69;46.56
56658;BME280;42530;52.240;19.354;2022-11-11T11:07:56;53148.56;;;-144.69;46.00
56658;BME280;42530;52.240;19.354;2022-11-11T11:10:27;53167.31;;;-144.69;46.15
56658;BME280;42530;52.240;19.354;2022-11-11T11:15:30;53173.53;;;-144.69;46.96
56658;BME280;42530;52.240;19.354;2022-11-11T11:18:22;53142.34;;;-144.69;47.04
56658;BME280;42530;52.240;19.354;2022-11-11T11:26:06;53140.25;;;-144.69;47.23
56658;BME280;42530;52.240;19.354;2022-11-11T11:28:33;53165.22;;;-144.69;47.32
56658;BME280;42530;52.240;19.354;2022-11-11T11:31:00;53163.13;;;-144.69;47.44
56658;BME280;42530;52.240;19.354;2022-11-11T11:33:26;53186.03;;;-144.69;46.84
56658;BME280;42530;52.240;19.354;2022-11-11T11:35:51;53140.25;;;-144.69;46.95
56658;BME280;42530;52.240;19.354;2022-11-11T11:38:17;53148.56;;;-144.69;46.98
56658;BME280;42530;52.240;19.354;2022-11-11T11:40:54;53140.25;;;-144.69;47.20
56658;BME280;42530;52.240;19.354;2022-11-11T11:43:39;53169.38;;;-144.69;46.75
56658;BME280;42530;52.240;19.354;2022-11-11T11:46:38;53115.28;;;-144.69;47.22
56658;BME280;42530;52.240;19.354;2022-11-11T12:00:23;53152.75;;;-144.69;46.76
56658;BME280;42530;52.240;19.354;2022-11-11T12:05:42;53165.22;;;-144.69;47.33
56658;BME280;42530;52.240;19.354;2022-11-11T12:17:03;53171.47;;;-144.69;46.28
56658;BME280;42530;52.240;19.354;2022-11-11T12:28:41;53181.88;;;-144.69;44.75
56658;BME280;42530;52.240;19.354;2022-11-11T12:39:36;53152.75;;;-144.69;44.54
56658;BME280;42530;52.240;19.354;2022-11-11T12:42:17;53154.81;;;-144.69;44.62
56658;BME280;42530;52.240;19.354;2022-11-11T12:53:19;53148.56;;;-144.69;44.20
56658;BME280;42530;52.240;19.354;2022-11-11T13:06:47;53123.63;;;-144.69;44.26
56658;BME280;42530;52.240;19.354;2022-11-11T13:09:22;53115.28;;;-144.69;44.75
56658;BME280;42530;52.240;19.354;2022-11-11T13:12:04;53142.34;;;-144.69;44.72
56658;BME280;42530;52.240;19.354;2022-11-11T13:14:44;53142.34;;;-144.69;44.58
56658;BME280;42530;52.240;19.354;2022-11-11T13:17:14;53136.09;;;-144.69;44.64
56658;BME280;42530;52.240;19.354;2022-11-11T13:19:45;53152.75;;;-144.69;44.53
56658;BME280;42530;52.240;19.354;2022-11-11T13:22:21;53127.78;;;-144.69;45.00
56658;BME280;42530;52.240;19.354;2022-11-11T13:24:50;53165.22;;;-144.69;45.46
56658;BME280;42530;52.240;19.354;2022-11-11T13:27:27;53140.25;;;-144.69;45.20
56658;BME280;42530;52.240;19.354;2022-11-11T13:30:02;53144.41;;;-144.69;45.24
56658;BME280;42530;52.240;19.354;2022-11-11T13:32:34;53129.84;;;-144.69;45.40
56658;BME280;42530;52.240;19.354;2022-11-11T13:35:16;53127.78;;;-144.69;45.37
56658;BME280;42530;52.240;19.354;2022-11-11T13:37:43;53144.41;;;-144.69;45.49
56658;BME280;42530;52.240;19.354;2022-11-11T13:42:50;53131.94;;;-144.69;45.37
56658;BME280;42530;52.240;19.354;2022-11-11T13:47:58;53156.91;;;-144.69;45.48
56658;BME280;42530;52.240;19.354;2022-11-11T13:50:38;53148.56;;;-144.69;45.05
56658;BME280;42530;52.240;19.354;2022-11-11T13:53:10;53131.94;;;-144.69;45.26
56658;BME280;42530;52.240;19.354;2022-11-11T13:55:42;53142.34;;;-144.69;45.46
56658;BME280;42530;52.240;19.354;2022-11-11T13:58:27;53154.81;;;-144.69;45.75
56658;BME280;42530;52.240;19.354;2022-11-11T14:01:05;53148.56;;;-144.69;45.59
56658;BME280;42530;52.240;19.354;2022-11-11T14:03:34;53148.56;;;-144.69;45.55
56658;BME280;42530;52.240;19.354;2022-11-11T14:13:55;53152.75;;;-144.69;45.66
56658;BME280;42530;52.240;19.354;2022-11-11T14:21:59;53171.47;;;-144.69;45.92
56658;BME280;42530;52.240;19.354;2022-11-11T14:26:59;53136.09;;;-144.69;45.87
56658;BME280;42530;52.240;19.354;2022-11-11T14:29:34;53142.34;;;-144.69;46.03
56658;BME280;42530;52.240;19.354;2022-11-11T14:32:10;53127.78;;;-144.69;46.15
56658;BME280;42530;52.240;19.354;2022-11-11T14:40:34;53142.34;;;-144.69;46.05
56658;BME280;42530;52.240;19.354;2022-11-11T14:46:05;53142.34;;;-144.69;46.56
56658;BME280;42530;52.240;19.354;2022-11-11T14:48:56;53169.38;;;-144.69;46.24
56658;BME280;42530;52.240;19.354;2022-11-11T14:51:51;53146.50;;;-144.69;46.30
56658;BME280;42530;52.240;19.354;2022-11-11T14:57:23;53140.25;;;-144.69;46.88
56658;BME280;42530;52.240;19.354;2022-11-11T14:59:51;53140.25;;;-144.69;46.60
56658;BME280;42530;52.240;19.354;2022-11-11T15:02:47;53167.31;;;-144.69;46.01
56658;BME280;42530;52.240;19.354;2022-11-11T15:05:22;53152.75;;;-144.69;46.00
56658;BME280;42530;52.240;19.354;2022-11-11T15:08:00;53144.41;;;-144.69;45.69